createdAt,value
2022-09-07T00:00:45.552Z,53.40
2022-09-07T00:03:15.797Z,53.30
2022-09-07T00:05:45.825Z,53.10
2022-09-07T00:08:15.590Z,53.40
2022-09-07T00:10:52.811Z,53.20
2022-09-07T00:13:22.506Z,53.50
2022-09-07T00:15:52.235Z,53.10
2022-09-07T00:18:22.216Z,53.30
2022-09-07T00:21:03.626Z,53.30
2022-09-07T00:23:33.246Z,53.30
2022-09-07T00:26:03.271Z,53.30
2022-09-07T00:28:32.970Z,53.10
2022-09-07T00:31:03.043Z,53.10
2022-09-07T00:33:33.047Z,53.10
2022-09-07T00:36:03.578Z,53.20
2022-09-07T00:38:33.290Z,53.00
2022-09-07T00:41:03.071Z,53.10
2022-09-07T00:44:01.590Z,53.20
2022-09-07T00:46:33.230Z,53.10
2022-09-07T00:49:02.908Z,53.10
2022-09-07T00:51:37.832Z,53.10
2022-09-07T00:54:08.042Z,53.10
2022-09-07T00:56:38.462Z,53.00
2022-09-07T00:59:07.955Z,53.20
2022-09-07T01:01:41.972Z,53.60
2022-09-07T01:04:11.834Z,53.60
2022-09-07T01:06:42.198Z,53.80
2022-09-07T01:09:12.622Z,54.40
2022-09-07T01:11:42.164Z,54.80
2022-09-07T01:14:12.151Z,54.30
2022-09-07T01:16:48.199Z,58.90
2022-09-07T01:19:33.056Z,56.10
2022-09-07T01:22:22.461Z,54.80
2022-09-07T01:25:13.650Z,54.50
2022-09-07T01:27:48.300Z,44.00
2022-09-07T01:30:18.132Z,47.30
2022-09-07T01:32:53.816Z,47.00
2022-09-07T01:35:30.217Z,47.40
2022-09-07T01:38:15.278Z,48.60
2022-09-07T01:40:50.536Z,46.20
2022-09-07T01:43:40.067Z,46.50
2022-09-07T01:46:11.582Z,46.20
2022-09-07T01:48:41.143Z,46.30
2022-09-07T01:51:10.682Z,45.80
2022-09-07T01:53:47.150Z,45.40
2022-09-07T01:56:21.830Z,45.40
2022-09-07T01:58:53.269Z,50.00
2022-09-07T02:01:22.793Z,50.30
2022-09-07T02:04:11.950Z,48.80
2022-09-07T02:06:46.908Z,48.30
2022-09-07T02:09:29.080Z,48.20
2022-09-07T02:11:58.548Z,48.10
2022-09-07T02:14:32.562Z,48.30
2022-09-07T02:17:02.136Z,48.50
2022-09-07T02:19:38.354Z,48.50
2022-09-07T02:22:10.342Z,48.40
2022-09-07T02:24:41.275Z,48.40
2022-09-07T02:27:13.294Z,48.60
2022-09-07T02:29:44.680Z,48.70
2022-09-07T02:32:14.240Z,48.90
2022-09-07T02:34:43.701Z,49.00
2022-09-07T02:37:13.192Z,49.10
2022-09-07T02:39:42.713Z,49.10
2022-09-07T02:42:12.310Z,49.10
2022-09-07T02:44:42.251Z,49.10
2022-09-07T02:47:17.837Z,49.10
2022-09-07T02:50:07.368Z,49.00
2022-09-07T02:52:45.716Z,49.30
2022-09-07T02:55:33.832Z,49.20
2022-09-07T02:58:22.041Z,49.00
2022-09-07T03:01:06.713Z,48.90
2022-09-07T03:03:39.017Z,48.90
2022-09-07T03:06:20.159Z,48.80
2022-09-07T03:08:50.677Z,48.80
2022-09-07T03:11:20.111Z,48.80
2022-09-07T03:13:50.087Z,48.70
2022-09-07T03:16:19.808Z,48.60
2022-09-07T03:18:49.425Z,48.60
2022-09-07T03:21:18.972Z,48.70
2022-09-07T03:23:51.744Z,48.60
2022-09-07T03:26:25.059Z,48.60
2022-09-07T03:28:54.841Z,48.60
2022-09-07T03:31:24.415Z,48.50
2022-09-07T03:33:54.021Z,48.50
2022-09-07T03:36:23.469Z,48.60
2022-09-07T03:38:53.034Z,48.80
2022-09-07T03:41:22.632Z,49.00
2022-09-07T03:43:52.243Z,48.80
2022-09-07T03:46:21.937Z,48.90
2022-09-07T03:48:51.633Z,49.10
2022-09-07T03:51:21.137Z,49.10
2022-09-07T03:53:50.972Z,49.10
2022-09-07T03:56:21.250Z,49.00
2022-09-07T03:58:51.216Z,49.00
2022-09-07T04:01:21.866Z,49.20
2022-09-07T04:03:51.436Z,49.10
2022-09-07T04:06:20.984Z,49.30
2022-09-07T04:08:50.594Z,49.40
2022-09-07T04:11:20.221Z,48.10
2022-09-07T04:13:49.719Z,48.80
2022-09-07T04:16:20.331Z,48.90
2022-09-07T04:18:51.530Z,48.80
2022-09-07T04:21:21.079Z,48.70
2022-09-07T04:23:50.607Z,48.60
2022-09-07T04:26:23.955Z,48.80
2022-09-07T04:28:53.790Z,48.60
2022-09-07T04:31:23.611Z,48.40
2022-09-07T04:33:53.279Z,48.20
2022-09-07T04:36:23.637Z,48.20
2022-09-07T04:39:02.429Z,48.00
2022-09-07T04:41:32.425Z,47.90
2022-09-07T04:44:02.376Z,47.90
2022-09-07T04:46:34.788Z,47.80
2022-09-07T04:49:05.494Z,47.70
2022-09-07T04:51:35.246Z,47.60
2022-09-07T04:54:05.541Z,47.50
2022-09-07T04:56:35.128Z,47.40
2022-09-07T04:59:04.695Z,47.30
2022-09-07T05:01:34.488Z,47.20
2022-09-07T05:04:04.554Z,47.00
2022-09-07T05:06:34.130Z,47.00
2022-09-07T05:09:03.717Z,46.70
2022-09-07T05:11:33.147Z,46.80
2022-09-07T05:14:03.028Z,46.80
2022-09-07T05:16:32.826Z,46.70
2022-09-07T05:19:02.752Z,46.60
2022-09-07T05:21:36.431Z,46.60
2022-09-07T05:24:06.703Z,46.40
2022-09-07T05:26:36.748Z,46.30
2022-09-07T05:31:57.192Z,46.20
2022-09-07T05:34:30.089Z,46.10
2022-09-07T05:37:00.355Z,46.00
2022-09-07T05:39:30.279Z,45.90
2022-09-07T05:41:59.938Z,45.80
2022-09-07T05:44:45.713Z,45.80
2022-09-07T05:47:15.735Z,45.70
2022-09-07T05:49:45.326Z,45.70
2022-09-07T05:52:14.811Z,45.60
2022-09-07T05:54:44.302Z,45.50
2022-09-07T05:57:14.174Z,45.60
2022-09-07T05:59:43.680Z,46.20
2022-09-07T06:02:16.716Z,45.50
2022-09-07T06:04:46.462Z,45.40
2022-09-07T06:07:22.074Z,45.40
2022-09-07T06:12:48.957Z,45.20
2022-09-07T06:15:19.234Z,45.00
2022-09-07T06:17:48.756Z,45.00
2022-09-07T06:20:18.303Z,45.50
2022-09-07T06:22:48.044Z,44.90
2022-09-07T06:25:17.740Z,44.90
2022-09-07T06:27:49.664Z,44.70
2022-09-07T06:30:19.740Z,44.20
2022-09-07T06:32:49.683Z,44.70
2022-09-07T06:35:19.238Z,44.50
2022-09-07T06:37:49.491Z,44.40
2022-09-07T06:40:18.955Z,42.90
2022-09-07T06:42:48.423Z,40.20
2022-09-07T06:45:18.682Z,38.30
2022-09-07T06:47:48.124Z,37.10
2022-09-07T06:50:18.381Z,36.40
2022-09-07T06:55:44.451Z,35.50
2022-09-07T06:58:14.007Z,35.20
2022-09-07T07:00:43.719Z,35.00
2022-09-07T07:03:13.422Z,34.80
2022-09-07T07:05:43.033Z,34.50
2022-09-07T07:08:12.573Z,34.60
2022-09-07T07:10:42.034Z,34.60
2022-09-07T07:13:11.760Z,34.90
2022-09-07T07:15:41.276Z,34.80
2022-09-07T07:18:20.965Z,34.60
2022-09-07T07:20:50.976Z,34.70
2022-09-07T07:23:20.981Z,34.90
2022-09-07T07:25:50.448Z,35.00
2022-09-07T07:31:12.161Z,35.00
2022-09-07T07:33:42.792Z,35.00
2022-09-07T07:36:13.720Z,35.00
2022-09-07T07:44:24.249Z,35.20
2022-09-07T07:46:53.814Z,35.30
2022-09-07T07:49:23.423Z,35.50
2022-09-07T07:54:45.002Z,35.80
2022-09-07T07:57:14.578Z,35.70
2022-09-07T07:59:44.100Z,35.90
2022-09-07T08:02:15.550Z,36.00
2022-09-07T08:04:45.189Z,36.00
2022-09-07T08:07:14.709Z,36.10
2022-09-07T08:09:44.933Z,36.20
2022-09-07T08:12:15.422Z,36.30
2022-09-07T08:14:44.984Z,36.40
2022-09-07T08:17:15.008Z,36.60
2022-09-07T08:19:44.550Z,36.70
2022-09-07T08:22:14.167Z,36.70
2022-09-07T08:24:43.854Z,36.80
2022-09-07T08:27:13.292Z,37.00
2022-09-07T08:29:42.796Z,37.10
2022-09-07T08:32:12.234Z,37.00
2022-09-07T08:34:41.687Z,37.10
2022-09-07T08:37:11.351Z,37.20
2022-09-07T08:39:40.874Z,37.20
2022-09-07T08:42:28.693Z,37.30
2022-09-07T08:45:21.002Z,37.20
2022-09-07T08:47:51.049Z,37.30
2022-09-07T08:50:23.015Z,37.20
2022-09-07T08:52:53.924Z,37.20
2022-09-07T08:55:32.680Z,37.40
2022-09-07T08:58:45.234Z,37.30
2022-09-07T09:01:31.721Z,37.40
2022-09-07T09:04:17.988Z,37.50
2022-09-07T09:06:51.804Z,38.10
2022-09-07T09:09:24.918Z,37.90
2022-09-07T09:11:54.999Z,38.30
2022-09-07T09:14:32.266Z,38.60
2022-09-07T09:17:12.603Z,39.00
2022-09-07T09:19:42.070Z,39.40
2022-09-07T09:22:14.830Z,39.70
2022-09-07T09:24:47.272Z,39.90
2022-09-07T09:27:17.044Z,40.10
2022-09-07T09:29:46.497Z,40.40
2022-09-07T09:32:34.479Z,40.50
2022-09-07T09:35:03.952Z,40.70
2022-09-07T09:37:36.949Z,40.80
2022-09-07T09:40:08.334Z,40.80
2022-09-07T09:42:39.939Z,40.90
2022-09-07T09:45:14.537Z,41.00
2022-09-07T09:47:44.496Z,41.10
2022-09-07T09:53:26.540Z,41.40
2022-09-07T09:55:55.980Z,41.40
2022-09-07T10:01:35.444Z,41.60
2022-09-07T10:04:24.399Z,41.80
2022-09-07T10:07:00.633Z,41.80
2022-09-07T10:09:38.007Z,42.00
2022-09-07T10:12:08.409Z,42.00
2022-09-07T10:14:38.932Z,42.10
2022-09-07T10:17:15.300Z,42.20
2022-09-07T10:19:45.043Z,42.30
2022-09-07T10:22:25.930Z,42.40
2022-09-07T10:24:55.466Z,42.50
2022-09-07T10:27:27.684Z,42.50
2022-09-07T10:29:57.208Z,42.60
2022-09-07T10:32:55.805Z,42.70
2022-09-07T10:35:28.202Z,42.70
2022-09-07T10:37:58.171Z,42.90
2022-09-07T10:40:35.108Z,42.90
2022-09-07T10:43:23.630Z,43.00
2022-09-07T10:45:54.053Z,43.10
2022-09-07T10:48:26.322Z,43.00
2022-09-07T10:51:01.449Z,43.20
2022-09-07T10:54:30.170Z,43.20
2022-09-07T10:56:41.194Z,43.30
2022-09-07T10:59:23.573Z,43.30
2022-09-07T11:02:02.392Z,43.40
2022-09-07T11:04:31.907Z,43.50
2022-09-07T11:07:05.842Z,43.50
2022-09-07T11:09:54.095Z,43.50
2022-09-07T11:12:27.924Z,43.60
2022-09-07T11:15:01.204Z,43.70
2022-09-07T11:17:30.810Z,43.70
2022-09-07T11:20:00.445Z,43.70
2022-09-07T11:22:30.034Z,43.80
2022-09-07T11:28:17.399Z,43.90
2022-09-07T11:30:51.152Z,43.90
2022-09-07T11:33:20.926Z,43.90
2022-09-07T11:35:56.182Z,44.00
2022-09-07T11:38:27.154Z,44.00
2022-09-07T11:41:05.601Z,44.00
2022-09-07T11:43:39.322Z,44.10
2022-09-07T11:46:09.702Z,44.10
2022-09-07T11:48:49.694Z,44.20
2022-09-07T11:51:40.768Z,44.20
2022-09-07T11:54:19.447Z,44.20
2022-09-07T11:56:52.125Z,44.30
2022-09-07T11:59:21.640Z,44.40
2022-09-07T12:02:03.352Z,44.40
2022-09-07T12:04:56.033Z,44.40
2022-09-07T12:07:30.166Z,44.30
2022-09-07T12:10:00.273Z,44.20
2022-09-07T12:12:48.286Z,44.40
2022-09-07T12:15:36.016Z,44.40
2022-09-07T12:18:23.575Z,44.50
2022-09-07T12:20:53.188Z,44.50
2022-09-07T12:23:25.740Z,44.60
2022-09-07T12:25:55.748Z,44.60
2022-09-07T12:28:25.152Z,44.70
2022-09-07T12:30:58.411Z,44.70
2022-09-07T12:33:31.686Z,44.70
2022-09-07T12:36:02.111Z,44.80
2022-09-07T12:38:37.235Z,44.90
2022-09-07T12:41:16.044Z,45.00
2022-09-07T12:43:46.111Z,45.20
2022-09-07T12:46:34.967Z,45.30
2022-09-07T12:49:08.159Z,45.30
2022-09-07T12:54:36.279Z,45.60
2022-09-07T12:59:58.930Z,45.60
2022-09-07T13:03:07.188Z,45.60
2022-09-07T13:05:55.140Z,45.60
2022-09-07T13:08:36.340Z,45.70
2022-09-07T13:11:21.143Z,45.70
2022-09-07T13:14:09.567Z,45.80
2022-09-07T13:19:47.354Z,45.90
2022-09-07T13:22:45.618Z,46.00
2022-09-07T13:25:15.081Z,45.90
2022-09-07T13:28:00.909Z,46.20
2022-09-07T13:30:44.785Z,46.40
2022-09-07T13:33:25.957Z,46.50
2022-09-07T13:36:06.160Z,46.60
2022-09-07T13:38:36.287Z,46.80
2022-09-07T13:41:07.299Z,46.90
2022-09-07T13:43:37.031Z,47.00
2022-09-07T13:46:09.642Z,47.00
2022-09-07T13:48:40.754Z,47.70
2022-09-07T13:51:18.288Z,47.20
2022-09-07T13:53:53.800Z,47.10
2022-09-07T13:56:29.405Z,47.20
2022-09-07T13:58:58.883Z,47.30
2022-09-07T14:01:29.062Z,47.30
2022-09-07T14:04:00.868Z,47.40
2022-09-07T14:06:31.428Z,47.50
2022-09-07T14:09:02.074Z,47.60
2022-09-07T14:11:39.516Z,47.70
2022-09-07T14:14:09.916Z,47.70
2022-09-07T14:16:39.562Z,47.80
2022-09-07T14:19:18.070Z,48.00
2022-09-07T14:21:55.099Z,48.10
2022-09-07T14:24:44.701Z,48.20
2022-09-07T14:27:24.591Z,48.40
2022-09-07T14:29:54.259Z,48.60
2022-09-07T14:32:27.310Z,48.70
2022-09-07T14:34:56.848Z,48.80
2022-09-07T14:37:26.317Z,48.90
2022-09-07T14:39:57.549Z,48.90
2022-09-07T14:42:27.469Z,48.90
2022-09-07T14:45:15.484Z,48.90
2022-09-07T14:47:44.963Z,48.90
2022-09-07T14:50:24.868Z,49.00
2022-09-07T14:55:46.295Z,49.10
2022-09-07T14:58:16.811Z,49.10
2022-09-07T15:01:36.717Z,49.10
2022-09-07T15:03:41.100Z,49.30
2022-09-07T15:09:07.260Z,49.40
2022-09-07T15:11:37.520Z,49.40
2022-09-07T15:14:11.859Z,49.30
2022-09-07T15:16:43.962Z,49.50
2022-09-07T15:19:16.785Z,49.60
2022-09-07T15:21:46.359Z,49.70
2022-09-07T15:24:16.537Z,49.70
2022-09-07T15:27:03.950Z,49.70
2022-09-07T15:29:33.550Z,49.80
2022-09-07T15:32:05.055Z,49.90
2022-09-07T15:34:35.875Z,50.00
2022-09-07T15:38:01.202Z,50.00
2022-09-07T15:39:56.776Z,50.00
2022-09-07T15:45:16.503Z,49.90
2022-09-07T15:47:51.898Z,50.10
2022-09-07T15:50:23.705Z,50.20
2022-09-07T15:52:53.370Z,50.10
2022-09-07T15:55:22.915Z,50.20
2022-09-07T15:58:02.246Z,50.00
2022-09-07T16:00:38.542Z,50.40
2022-09-07T16:03:08.692Z,50.30
2022-09-07T16:05:41.220Z,50.20
2022-09-07T16:08:25.970Z,50.40
2022-09-07T16:11:04.498Z,50.10
2022-09-07T16:13:34.992Z,50.30
2022-09-07T16:16:07.792Z,50.30
2022-09-07T16:18:37.794Z,50.40
2022-09-07T16:21:12.422Z,50.40
2022-09-07T16:23:45.722Z,50.50
2022-09-07T16:26:15.360Z,50.40
2022-09-07T16:28:46.084Z,50.50
2022-09-07T16:31:16.892Z,50.40
2022-09-07T16:33:46.579Z,50.50
2022-09-07T16:36:16.724Z,50.60
2022-09-07T16:38:49.397Z,50.50
2022-09-07T16:41:20.416Z,50.60
2022-09-07T16:43:50.779Z,50.70
2022-09-07T16:46:21.712Z,50.70
2022-09-07T16:48:52.333Z,50.40
2022-09-07T16:51:22.416Z,50.70
2022-09-07T16:53:52.628Z,50.70
2022-09-07T16:56:23.498Z,50.90
2022-09-07T16:58:54.727Z,50.80
2022-09-07T17:01:25.667Z,51.30
2022-09-07T17:03:55.356Z,50.90
2022-09-07T17:06:26.354Z,51.00
2022-09-07T17:08:56.626Z,50.90
2022-09-07T17:11:27.090Z,51.40
2022-09-07T17:13:57.300Z,51.00
2022-09-07T17:16:28.290Z,51.20
2022-09-07T17:21:52.992Z,51.10
2022-09-07T17:24:22.650Z,51.10
2022-09-07T17:26:52.906Z,51.10
2022-09-07T17:29:22.354Z,51.30
2022-09-07T17:34:41.609Z,51.20
2022-09-07T17:37:11.589Z,51.30
2022-09-07T17:39:41.367Z,51.50
2022-09-07T17:42:11.125Z,51.50
2022-09-07T17:44:40.572Z,51.90
2022-09-07T17:47:10.108Z,51.50
2022-09-07T17:49:39.534Z,52.10
2022-09-07T17:52:09.005Z,51.40
2022-09-07T17:54:38.548Z,52.20
2022-09-07T17:57:07.940Z,51.70
2022-09-07T18:02:26.922Z,51.50
2022-09-07T18:04:56.476Z,51.70
2022-09-07T18:07:26.130Z,51.80
2022-09-07T18:09:55.624Z,51.70
2022-09-07T18:12:25.435Z,51.70
2022-09-07T18:14:54.955Z,51.70
2022-09-07T18:17:24.319Z,51.60
2022-09-07T18:19:54.429Z,51.80
2022-09-07T18:22:24.421Z,52.10
2022-09-07T18:24:53.810Z,51.80
2022-09-07T18:27:23.325Z,51.90
2022-09-07T18:29:52.706Z,51.90
2022-09-07T18:32:22.128Z,51.80
2022-09-07T18:34:51.653Z,52.10
2022-09-07T18:37:21.156Z,52.10
2022-09-07T18:39:51.779Z,52.40
2022-09-07T18:42:23.012Z,52.00
2022-09-07T18:47:44.706Z,52.20
2022-09-07T18:50:14.939Z,51.90
2022-09-07T18:52:52.583Z,52.00
2022-09-07T18:55:23.931Z,52.10
2022-09-07T18:57:54.478Z,52.30
2022-09-07T19:00:25.858Z,52.10
2022-09-07T19:02:56.984Z,52.20
2022-09-07T19:08:17.620Z,52.00
2022-09-07T19:10:48.105Z,52.40
2022-09-07T19:13:18.163Z,52.40
2022-09-07T19:15:47.723Z,52.10
2022-09-07T19:18:17.235Z,52.20
2022-09-07T19:20:46.760Z,52.40
2022-09-07T19:23:16.183Z,52.80
2022-09-07T19:25:45.552Z,52.40
2022-09-07T19:28:15.644Z,52.30
2022-09-07T19:30:45.122Z,52.30
2022-09-07T19:33:14.639Z,52.40
2022-09-07T19:35:44.153Z,52.30
2022-09-07T19:38:13.942Z,52.30
2022-09-07T19:40:43.482Z,52.30
2022-09-07T19:43:12.929Z,52.30
2022-09-07T19:45:42.365Z,52.60
2022-09-07T19:48:11.897Z,52.50
2022-09-07T19:50:41.440Z,52.60
2022-09-07T19:53:13.856Z,52.50
2022-09-07T19:55:43.953Z,52.40
2022-09-07T19:58:16.789Z,52.90
2022-09-07T20:00:46.727Z,53.00
2022-09-07T20:03:16.193Z,53.10
2022-09-07T20:05:45.678Z,53.10
2022-09-07T20:08:15.113Z,53.20
2022-09-07T20:10:44.577Z,53.10
2022-09-07T20:13:14.123Z,53.10
2022-09-07T20:15:46.474Z,53.10
2022-09-07T20:18:16.053Z,53.10
2022-09-07T20:20:45.749Z,52.90
2022-09-07T20:23:15.207Z,53.00
2022-09-07T20:25:44.601Z,52.90
2022-09-07T20:28:15.091Z,52.80
2022-09-07T20:30:45.002Z,52.70
2022-09-07T20:33:14.435Z,52.80
2022-09-07T20:35:48.764Z,52.70
2022-09-07T20:38:18.536Z,52.60
2022-09-07T20:41:01.142Z,52.70
2022-09-07T20:43:31.034Z,52.60
2022-09-07T20:46:00.891Z,52.50
2022-09-07T20:48:30.384Z,52.50
2022-09-07T20:51:00.584Z,52.50
2022-09-07T20:53:29.986Z,52.40
2022-09-07T20:56:04.247Z,52.30
2022-09-07T20:58:34.348Z,52.20
2022-09-07T21:01:04.866Z,52.30
2022-09-07T21:03:34.391Z,52.20
2022-09-07T21:06:04.393Z,52.20
2022-09-07T21:08:37.402Z,52.10
2022-09-07T21:11:11.259Z,52.00
2022-09-07T21:13:40.796Z,52.00
2022-09-07T21:16:11.148Z,52.00
2022-09-07T21:18:41.078Z,52.00
2022-09-07T21:21:19.725Z,52.00
2022-09-07T21:23:49.839Z,51.90
2022-09-07T21:26:21.653Z,51.90
2022-09-07T21:29:00.528Z,51.80
2022-09-07T21:31:30.575Z,51.70
2022-09-07T21:34:00.802Z,51.80
2022-09-07T21:36:30.678Z,51.80
2022-09-07T21:39:00.379Z,51.70
2022-09-07T21:41:29.805Z,51.70
2022-09-07T21:43:59.939Z,51.70
2022-09-07T21:46:29.847Z,51.60
2022-09-07T21:48:59.450Z,51.60
2022-09-07T21:51:28.852Z,51.50
2022-09-07T21:53:58.737Z,51.60
2022-09-07T21:56:28.719Z,51.60
2022-09-07T21:58:59.161Z,51.50
2022-09-07T22:01:29.033Z,51.40
2022-09-07T22:03:59.224Z,51.40
2022-09-07T22:06:29.125Z,51.40
2022-09-07T22:08:59.425Z,51.40
2022-09-07T22:11:29.129Z,51.30
2022-09-07T22:13:59.758Z,51.30
2022-09-07T22:16:29.345Z,51.30
2022-09-07T22:18:58.929Z,51.40
2022-09-07T22:21:28.979Z,51.30
2022-09-07T22:23:59.218Z,51.20
2022-09-07T22:26:30.534Z,51.10
2022-09-07T22:29:00.539Z,51.10
2022-09-07T22:31:30.993Z,51.40
2022-09-07T22:34:00.854Z,51.70
2022-09-07T22:36:34.441Z,51.60
2022-09-07T22:39:05.419Z,51.60
2022-09-07T22:41:35.709Z,51.70
2022-09-07T22:44:05.547Z,51.60
2022-09-07T22:46:37.159Z,51.50
2022-09-07T22:49:10.389Z,51.40
2022-09-07T22:51:41.934Z,50.80
2022-09-07T22:54:12.247Z,50.80
2022-09-07T22:56:42.001Z,50.80
2022-09-07T22:59:12.399Z,50.80
2022-09-07T23:01:41.969Z,50.80
2022-09-07T23:04:11.693Z,50.80
2022-09-07T23:06:42.635Z,50.90
2022-09-07T23:09:13.272Z,51.20
2022-09-07T23:11:42.709Z,51.50
2022-09-07T23:14:16.599Z,51.20
2022-09-07T23:16:46.190Z,50.90
2022-09-07T23:19:16.401Z,51.00
2022-09-07T23:21:45.821Z,51.10
2022-09-07T23:24:15.908Z,51.20
2022-09-07T23:26:45.413Z,51.10
2022-09-07T23:29:15.076Z,51.40
2022-09-07T23:31:44.580Z,51.20
2022-09-07T23:34:14.153Z,51.10
2022-09-07T23:36:43.678Z,51.20
2022-09-07T23:39:13.238Z,51.30
2022-09-07T23:41:42.664Z,51.40
2022-09-07T23:44:12.165Z,51.50
2022-09-07T23:46:41.850Z,51.40
2022-09-07T23:49:11.473Z,51.40
2022-09-07T23:51:40.929Z,51.40
2022-09-07T23:54:10.377Z,51.40
2022-09-07T23:56:40.314Z,51.40
2022-09-07T23:59:10.154Z,51.40
